Ravensdale, Washington
Current Conditions -  °F | °C
As of 4:53 PM on Saturday 25 Oct 2014 (Local Time) from KRNT Reporting Station
Overcast Overcast  
Wind Chill: 63°   Ceiling: 7000
Heat Index: 63°   Visibility: 10mi
Dew Point: 50°   Wind: 14mph
Humidity: 63%   Direction: 140°SE
Pressure: 29.27"   Gusts: 25mph
Location:  47.35°N, 121.99°W
Report Text: KRNT 252353Z 14012G22KT 090V170 10SM OVC070 17/10 A2927 RMK AO2 RAE05 SLP916 P0000 60005 T01720100 10178 20133 56020
Loading
Personal Weather Stations






























Interactive Weather Map
Tropical Storm Tracking
New forecast layout! Learn more

10-Day Weather Forecast

Advertisements
Track Severe Weather on mobile